Time;durP1;ratioP1;P1;durP2;ratioP2;P2;SDS_P1;SDS_P2;PMS_P1;PMS_P2;Temp;Humidity;BMP_temperature;BMP_pressure;BME280_temperature;BME280_humidity;BME280_pressure;Samples;Min_cycle;Max_cycle;Signal;HPM_P1;HPM_P2
2023/08/07 00:02:06;;;;;;;6.50;4.60;;;;;;;24.47;100.00;99275.91;105390;1258;72242;-64
2023/08/07 00:04:35;;;;;;;7.40;4.70;;;;;;;24.47;100.00;99278.64;105342;1256;60544;-62
2023/08/07 00:07:03;;;;;;;7.00;4.30;;;;;;;24.45;100.00;99276.77;105456;1256;59679;-64
2023/08/07 00:09:30;;;;;;;5.80;4.00;;;;;;;24.43;100.00;99274.92;105657;1258;71850;-67
2023/08/07 00:11:58;;;;;;;6.60;4.40;;;;;;;24.42;100.00;99279.27;105054;1263;67073;-62
2023/08/07 00:14:26;;;;;;;8.90;4.40;;;;;;;24.43;100.00;99279.56;105435;1263;72515;-64
2023/08/07 09:40:57;;;;;;;11.10;3.50;;;;;;;38.53;40.80;99022.02;103277;1283;604923;-66
2023/08/07 09:43:25;;;;;;;11.60;3.70;;;;;;;38.20;41.00;99014.08;104341;1271;117806;-62
2023/08/07 09:45:59;;;;;;;7.40;2.90;;;;;;;38.08;44.06;99014.70;105263;1260;59337;-63
2023/08/07 09:48:40;;;;;;;11.90;3.90;;;;;;;38.26;45.40;99013.02;104890;1267;63434;-66
2023/08/07 09:51:08;;;;;;;11.60;4.30;;;;;;;38.46;43.40;99022.23;105155;1260;68283;-61
2023/08/07 09:53:36;;;;;;;12.60;3.80;;;;;;;38.37;42.87;99018.70;105383;1262;63703;-61
2023/08/07 09:56:04;;;;;;;13.30;3.40;;;;;;;38.21;43.47;99021.69;105297;1262;59315;-62
2023/08/07 09:58:31;;;;;;;14.40;4.40;;;;;;;38.10;45.39;99016.79;105377;1257;59355;-61
2023/08/07 10:01:01;;;;;;;11.20;3.70;;;;;;;38.09;48.21;99010.88;105311;1262;62082;-66
2023/08/07 10:03:28;;;;;;;11.00;4.00;;;;;;;38.29;48.56;99008.65;105383;1258;59190;-61
2023/08/07 10:05:56;;;;;;;10.40;3.30;;;;;;;38.49;46.66;99011.54;105319;1260;62526;-63
2023/08/07 10:08:24;;;;;;;10.90;3.70;;;;;;;38.63;43.59;99016.95;105437;1263;60076;-62
2023/08/07 10:10:52;;;;;;;14.30;4.00;;;;;;;38.65;40.14;99015.68;105734;1262;59665;-67
2023/08/07 10:13:21;;;;;;;18.10;4.20;;;;;;;38.57;40.14;99019.88;104928;1262;63661;-66
2023/08/07 10:16:00;;;;;;;13.70;4.60;;;;;;;38.43;40.46;99021.23;105114;1259;59676;-60
2023/08/07 10:18:28;;;;;;;10.00;4.70;;;;;;;38.28;43.13;99013.93;105513;1263;63837;-66
2023/08/07 10:20:56;;;;;;;12.70;4.20;;;;;;;38.27;43.15;99015.58;105517;1265;59559;-61
2023/08/07 10:23:24;;;;;;;12.90;3.70;;;;;;;38.29;42.79;99015.56;105361;1262;59648;-64
2023/08/07 10:25:51;;;;;;;9.50;3.40;;;;;;;38.35;44.73;99018.73;105275;1264;64826;-62
2023/08/07 10:28:19;;;;;;;12.50;4.80;;;;;;;38.52;43.36;99017.50;105152;1263;59628;-62
2023/08/07 10:30:48;;;;;;;11.70;4.10;;;;;;;38.66;43.31;99021.84;105446;1261;63814;-64
2023/08/07 10:33:17;;;;;;;10.80;3.10;;;;;;;38.78;42.76;99025.94;105125;1258;59345;-63
2023/08/07 10:35:47;;;;;;;9.10;3.20;;;;;;;38.90;41.87;99027.31;105412;1263;59780;-64
2023/08/07 10:38:16;;;;;;;13.90;4.40;;;;;;;38.99;41.31;99027.55;105484;1263;64210;-62
2023/08/07 10:41:07;;;;;;;10.70;3.00;;;;;;;38.95;40.97;99027.52;105826;1257;59312;-64
2023/08/07 10:43:42;;;;;;;12.00;3.40;;;;;;;38.89;42.10;99023.98;105218;1263;66524;-62
2023/08/07 10:46:15;;;;;;;13.20;3.40;;;;;;;38.95;41.29;99028.58;105434;1259;59708;-65
2023/08/07 10:48:47;;;;;;;10.00;3.80;;;;;;;39.02;41.57;99025.17;105581;1257;61263;-62
2023/08/07 10:51:16;;;;;;;11.70;3.60;;;;;;;39.10;41.59;99026.27;105768;1258;64698;-62
2023/08/07 10:53:48;;;;;;;9.40;3.50;;;;;;;39.16;42.39;99025.96;105556;1258;59671;-63
2023/08/07 11:02:36;;;;;;;11.80;3.90;;;;;;;39.11;42.53;99013.23;102261;1293;600600;-62
2023/08/07 11:05:04;;;;;;;12.40;3.60;;;;;;;39.10;41.91;99014.89;105071;1260;59256;-64
2023/08/07 11:07:33;;;;;;;16.90;5.00;;;;;;;38.96;41.70;99014.80;105457;1260;59906;-67
2023/08/07 11:10:01;;;;;;;9.90;4.10;;;;;;;38.73;42.95;99016.48;105263;1264;63401;-63
2023/08/07 11:12:29;;;;;;;12.60;5.10;;;;;;;38.49;44.14;99014.73;105325;1258;59391;-63
2023/08/07 11:14:56;;;;;;;12.80;4.90;;;;;;;38.36;44.75;99018.64;105439;1261;63856;-64
2023/08/07 11:17:26;;;;;;;10.40;4.90;;;;;;;38.44;46.51;99015.47;105263;1260;59500;-64
2023/08/07 11:19:55;;;;;;;15.70;5.10;;;;;;;38.70;44.25;99022.27;105695;1257;59340;-64
2023/08/07 11:22:22;;;;;;;13.20;4.50;;;;;;;38.82;43.55;99023.19;105534;1260;63843;-64
2023/08/07 11:24:51;;;;;;;12.80;4.50;;;;;;;38.80;43.18;99028.64;105753;1254;60922;-63
2023/08/07 11:27:22;;;;;;;11.00;4.10;;;;;;;38.75;43.93;99021.05;105804;1261;63692;-63
2023/08/07 11:29:50;;;;;;;11.30;4.30;;;;;;;38.67;43.31;99026.95;105902;1254;59695;-62
2023/08/07 11:32:20;;;;;;;13.60;5.20;;;;;;;38.54;45.37;99029.01;105934;1253;59641;-61
2023/08/07 11:34:51;;;;;;;11.10;4.40;;;;;;;38.71;47.48;99024.11;105504;1253;62923;-65
2023/08/07 11:37:19;;;;;;;12.40;4.00;;;;;;;39.10;45.98;99028.90;105603;1257;59625;-64
2023/08/07 11:39:46;;;;;;;13.80;4.00;;;;;;;39.43;42.94;99020.46;105621;1258;62519;-64
2023/08/07 11:42:14;;;;;;;8.50;3.20;;;;;;;39.70;41.88;99018.89;105752;1257;59629;-63
2023/08/07 11:44:43;;;;;;;11.70;3.60;;;;;;;39.93;40.95;99023.42;105542;1252;59504;-64
2023/08/07 11:47:11;;;;;;;12.90;3.80;;;;;;;40.07;40.06;99021.82;105540;1253;73874;-64
2023/08/07 11:49:39;;;;;;;14.10;4.40;;;;;;;40.05;39.80;99021.30;105576;1258;59720;-63
2023/08/07 11:52:07;;;;;;;13.90;4.00;;;;;;;40.00;40.42;99026.83;105600;1253;63913;-62
2023/08/07 11:54:35;;;;;;;13.60;5.00;;;;;;;40.06;39.25;99024.48;105749;1253;59599;-63
2023/08/07 11:57:15;;;;;;;17.60;4.80;;;;;;;40.13;39.17;99020.59;105942;1258;59615;-67
2023/08/07 11:59:43;;;;;;;13.10;5.20;;;;;;;40.16;39.53;99024.90;105723;1252;64195;-61
2023/08/07 12:02:14;;;;;;;17.20;5.50;;;;;;;40.26;37.72;99034.66;106165;1256;67060;-63
2023/08/07 12:04:42;;;;;;;15.40;4.70;;;;;;;40.23;37.64;99037.28;106176;1254;62531;-65
2023/08/07 12:07:11;;;;;;;14.30;4.00;;;;;;;40.08;38.59;99029.83;105774;1254;59689;-67
2023/08/07 12:09:38;;;;;;;17.50;5.10;;;;;;;40.02;39.62;99030.32;105530;1253;59570;-64
2023/08/07 12:12:07;;;;;;;16.60;5.10;;;;;;;40.06;38.67;99032.27;105813;1253;62886;-61
2023/08/07 12:14:35;;;;;;;12.70;4.50;;;;;;;40.07;39.30;99037.80;105658;1254;59672;-67
2023/08/07 12:17:03;;;;;;;13.70;5.10;;;;;;;40.08;39.49;99036.00;105479;1253;62507;-67
2023/08/07 12:19:42;;;;;;;16.90;5.80;;;;;;;40.04;39.62;99039.26;105767;1253;59666;-62
2023/08/07 12:22:10;;;;;;;14.50;6.00;;;;;;;39.72;39.17;99040.45;105598;1258;59265;-62
2023/08/07 12:24:40;;;;;;;16.20;5.80;;;;;;;39.34;41.10;99036.36;106063;1253;62887;-64
2023/08/07 12:27:08;;;;;;;13.00;5.10;;;;;;;39.19;43.06;99037.29;105532;1260;59536;-63
2023/08/07 12:29:35;;;;;;;18.10;5.90;;;;;;;39.19;43.53;99035.83;105583;1257;62498;-62
2023/08/07 12:32:04;;;;;;;18.80;5.90;;;;;;;39.27;42.58;99039.02;105822;1256;59632;-62
2023/08/07 12:42:22;;;;;;;11.10;5.40;;;;;;;39.25;43.92;99044.72;102385;1292;601037;-67
2023/08/07 12:44:52;;;;;;;10.10;4.60;;;;;;;39.24;44.47;99044.36;104849;1272;59442;-64
2023/08/07 12:47:19;;;;;;;9.10;4.10;;;;;;;39.25;44.30;99045.29;105324;1263;59347;-64
2023/08/07 12:49:47;;;;;;;10.40;4.20;;;;;;;39.21;43.60;99044.45;105219;1258;62085;-62
2023/08/07 12:52:15;;;;;;;10.30;4.00;;;;;;;39.09;44.04;99045.80;105328;1258;59280;-62
2023/08/07 12:54:43;;;;;;;12.20;4.00;;;;;;;38.91;44.62;99046.54;105274;1263;63820;-67
2023/08/07 12:57:11;;;;;;;11.50;4.30;;;;;;;38.71;46.80;99047.00;105246;1270;210472;-64
2023/08/07 12:59:39;;;;;;;9.00;3.80;;;;;;;38.66;49.00;99050.86;105197;1257;59381;-64
2023/08/07 13:02:06;;;;;;;11.90;4.40;;;;;;;38.70;50.96;99051.13;105422;1257;62116;-63
2023/08/07 13:04:34;;;;;;;12.10;3.80;;;;;;;38.80;49.71;99045.94;105662;1256;59283;-65
2023/08/07 13:07:02;;;;;;;9.90;4.40;;;;;;;38.73;48.88;99043.31;105222;1257;73120;-65
2023/08/07 13:09:30;;;;;;;13.30;4.10;;;;;;;38.54;49.39;99045.11;105489;1262;59584;-61
2023/08/07 13:11:58;;;;;;;13.60;4.50;;;;;;;38.35;51.83;99047.89;106045;1257;59606;-63
2023/08/07 13:14:26;;;;;;;10.80;4.30;;;;;;;38.25;52.90;99041.64;105800;1254;63082;-62
2023/08/07 13:16:54;;;;;;;9.10;4.00;;;;;;;38.26;52.92;99036.89;105869;1257;59560;-67
2023/08/07 13:19:22;;;;;;;13.80;4.30;;;;;;;38.39;54.11;99038.14;105760;1256;63715;-63
2023/08/07 13:21:50;;;;;;;14.00;6.60;;;;;;;38.53;53.10;99035.17;105651;1256;59653;-62
2023/08/07 13:24:18;;;;;;;13.60;4.80;;;;;;;38.59;53.17;99032.08;105728;1251;59704;-62
2023/08/07 13:26:45;;;;;;;10.70;3.70;;;;;;;38.66;54.82;99033.81;105865;1251;63168;-67
2023/08/07 13:29:13;;;;;;;13.20;4.80;;;;;;;38.79;54.05;99036.19;105663;1251;59663;-63
2023/08/07 13:31:41;;;;;;;13.00;5.40;;;;;;;38.95;55.18;99039.80;105967;1256;63807;-62
2023/08/07 13:34:10;;;;;;;10.60;4.10;;;;;;;39.06;53.23;99039.45;105719;1257;59712;-62
2023/08/07 13:36:38;;;;;;;11.80;5.00;;;;;;;39.02;51.21;99039.89;105916;1251;59714;-63
2023/08/07 13:39:06;;;;;;;17.40;5.10;;;;;;;38.83;50.45;99043.63;105798;1256;64690;-60
2023/08/07 13:41:34;;;;;;;9.70;4.80;;;;;;;38.54;52.29;99047.06;105896;1255;59533;-62
2023/08/07 13:44:02;;;;;;;11.80;5.50;;;;;;;38.27;55.73;99049.80;105867;1251;64500;-62
2023/08/07 13:46:30;;;;;;;14.40;5.90;;;;;;;38.11;59.25;99044.07;105779;1257;59506;-61
2023/08/07 13:48:58;;;;;;;11.10;5.40;;;;;;;38.02;64.45;99048.40;105939;1251;59580;-62
2023/08/07 13:51:26;;;;;;;13.50;6.10;;;;;;;37.99;67.00;99050.58;105907;1251;63639;-62
2023/08/07 13:53:54;;;;;;;8.00;4.90;;;;;;;37.94;68.85;99049.14;105982;1254;59727;-60
2023/08/07 13:56:22;;;;;;;13.80;4.90;;;;;;;37.84;73.12;99052.90;105926;1256;62455;-63
2023/08/07 13:58:50;;;;;;;10.80;4.90;;;;;;;37.71;77.43;99056.45;105525;1255;59854;-68
2023/08/07 14:01:18;;;;;;;9.30;5.70;;;;;;;37.54;81.61;99060.70;105775;1256;59579;-64
2023/08/07 14:03:46;;;;;;;11.00;5.10;;;;;;;37.45;84.41;99060.98;105843;1251;62908;-62
2023/08/07 14:06:14;;;;;;;11.60;5.80;;;;;;;37.43;85.75;99057.56;106018;1251;59516;-62
2023/08/07 14:08:42;;;;;;;10.00;5.40;;;;;;;37.44;83.31;99053.29;106153;1256;63789;-62
2023/08/07 14:11:09;;;;;;;9.00;5.50;;;;;;;37.44;79.90;99051.58;105777;1257;59663;-63
2023/08/07 14:13:37;;;;;;;8.70;5.40;;;;;;;37.41;77.91;99056.39;105881;1256;59528;-63
2023/08/07 14:16:05;;;;;;;8.40;4.80;;;;;;;37.40;72.99;99054.75;105806;1256;71909;-61
2023/08/07 14:18:33;;;;;;;7.80;5.20;;;;;;;37.40;72.09;99054.29;105824;1257;59595;-62
2023/08/07 14:21:01;;;;;;;8.30;5.50;;;;;;;37.38;71.15;99057.31;105899;1254;62642;-64
2023/08/07 14:23:30;;;;;;;11.00;5.90;;;;;;;37.35;72.08;99061.51;105920;1256;59490;-61
2023/08/07 14:26:01;;;;;;;9.30;5.80;;;;;;;37.28;74.30;99074.50;105722;1257;59609;-63
2023/08/07 14:28:29;;;;;;;9.20;6.70;;;;;;;37.19;76.96;99075.54;105538;1250;62974;-61
2023/08/07 14:30:57;;;;;;;8.50;6.30;;;;;;;37.05;80.29;99084.16;105556;1257;59501;-61
2023/08/07 14:33:25;;;;;;;8.00;6.80;;;;;;;36.89;81.84;99093.15;105742;1257;71174;-63
2023/08/07 14:35:53;;;;;;;11.00;6.80;;;;;;;36.74;84.18;99103.00;105812;1254;59628;-63
2023/08/07 14:38:20;;;;;;;9.70;7.00;;;;;;;36.60;85.94;99102.84;105775;1251;59720;-63
2023/08/07 14:40:48;;;;;;;11.80;7.90;;;;;;;36.46;87.34;99103.49;105898;1251;64180;-67
2023/08/07 14:43:16;;;;;;;11.20;7.50;;;;;;;36.34;87.56;99108.82;105615;1251;60109;-64
2023/08/07 14:45:44;;;;;;;11.40;6.60;;;;;;;36.23;88.32;99114.36;105627;1256;63142;-62
2023/08/07 14:48:13;;;;;;;10.70;7.40;;;;;;;36.12;90.21;99114.17;105730;1254;59643;-62
2023/08/07 14:50:41;;;;;;;10.50;7.60;;;;;;;35.99;88.87;99116.59;105967;1252;59712;-64
2023/08/07 14:53:09;;;;;;;10.80;8.00;;;;;;;35.80;83.59;99122.45;105765;1257;62895;-68
2023/08/07 14:55:37;;;;;;;10.40;7.80;;;;;;;35.64;76.20;99124.63;105469;1251;59632;-62
2023/08/07 14:58:05;;;;;;;13.50;8.40;;;;;;;35.49;74.45;99122.27;105801;1266;62986;-62
2023/08/07 15:00:32;;;;;;;11.10;8.80;;;;;;;35.36;74.18;99129.16;105663;1254;59685;-67
2023/08/07 15:03:02;;;;;;;13.40;8.60;;;;;;;35.27;73.04;99130.02;105561;1251;59642;-64
2023/08/07 15:05:30;;;;;;;10.70;8.40;;;;;;;35.21;71.63;99132.39;105921;1251;64053;-62
2023/08/07 15:07:59;;;;;;;9.90;8.40;;;;;;;35.13;68.92;99133.55;105833;1252;59746;-62
2023/08/07 15:10:28;;;;;;;9.60;8.10;;;;;;;35.00;68.71;99134.68;105615;1251;63915;-62
2023/08/07 15:12:56;;;;;;;9.90;8.40;;;;;;;34.86;68.06;99136.78;105392;1251;60338;-63
2023/08/07 15:15:24;;;;;;;9.20;8.10;;;;;;;34.70;69.60;99138.73;105892;1251;59630;-63
2023/08/07 15:17:52;;;;;;;10.90;8.60;;;;;;;34.52;72.18;99138.55;105629;1251;73092;-62
2023/08/07 15:20:20;;;;;;;10.30;8.70;;;;;;;34.37;74.74;99140.90;105706;1251;66058;-61
2023/08/07 15:22:48;;;;;;;11.80;9.20;;;;;;;34.23;76.00;99144.69;105838;1256;63824;-63
2023/08/07 15:25:17;;;;;;;11.30;9.10;;;;;;;34.11;78.24;99149.80;106182;1256;59643;-65
2023/08/07 15:27:44;;;;;;;11.30;8.60;;;;;;;34.00;74.85;99155.08;106001;1251;60468;-61
2023/08/07 15:30:12;;;;;;;8.90;8.00;;;;;;;33.89;73.41;99160.23;105715;1251;64169;-61
2023/08/07 15:32:40;;;;;;;9.40;7.70;;;;;;;33.75;68.03;99173.09;105494;1251;67138;-65
2023/08/07 15:35:09;;;;;;;10.50;7.70;;;;;;;33.62;67.47;99172.08;105818;1251;72683;-61
2023/08/07 15:37:37;;;;;;;7.70;6.70;;;;;;;33.52;67.89;99176.31;105998;1257;59713;-63
2023/08/07 15:40:05;;;;;;;11.50;7.30;;;;;;;33.40;65.10;99176.55;105448;1256;59995;-62
2023/08/07 15:42:33;;;;;;;10.30;7.40;;;;;;;33.26;65.75;99184.20;105683;1251;71817;-65
2023/08/07 15:45:04;;;;;;;10.30;6.30;;;;;;;33.14;67.32;99184.17;105833;1251;66947;-61
2023/08/07 15:47:31;;;;;;;;;;;;;;;33.03;68.91;99186.06;105736;1256;72638;-65
2023/08/07 15:49:59;;;;;;;9.10;6.50;;;;;;;32.92;69.53;99186.92;105489;1256;59798;-61
2023/08/07 15:52:27;;;;;;;8.90;6.70;;;;;;;32.80;70.21;99191.48;105847;1251;60096;-61
2023/08/07 15:54:55;;;;;;;8.00;6.30;;;;;;;32.67;71.08;99193.20;105762;1252;72589;-62
2023/08/07 15:57:24;;;;;;;9.10;6.90;;;;;;;32.55;73.61;99192.72;105882;1256;67019;-62
2023/08/07 15:59:52;;;;;;;12.50;7.00;;;;;;;32.45;77.41;99200.38;105987;1253;71922;-66
2023/08/07 16:02:19;;;;;;;7.80;6.10;;;;;;;32.35;80.59;99204.15;105511;1251;59769;-62
2023/08/07 16:04:47;;;;;;;9.20;6.40;;;;;;;32.24;83.05;99203.92;105606;1251;60070;-64
2023/08/07 16:07:15;;;;;;;7.50;6.20;;;;;;;32.11;84.76;99206.67;105643;1252;72999;-63
2023/08/07 16:09:43;;;;;;;9.70;6.20;;;;;;;31.97;85.07;99207.20;106022;1256;66907;-62
2023/08/07 16:12:10;;;;;;;8.60;5.90;;;;;;;31.82;86.28;99213.09;105542;1256;72765;-64
2023/08/07 16:14:39;;;;;;;6.20;5.40;;;;;;;31.66;87.18;99209.41;105438;1251;60106;-67
2023/08/07 16:17:07;;;;;;;9.40;6.20;;;;;;;31.50;88.06;99217.20;105787;1251;60627;-62
2023/08/07 16:19:34;;;;;;;8.60;6.10;;;;;;;31.35;89.86;99225.89;105849;1252;73715;-62
2023/08/07 16:22:02;;;;;;;13.00;6.80;;;;;;;31.20;91.62;99228.94;105964;1256;67075;-67
2023/08/07 16:24:32;;;;;;;12.80;7.80;;;;;;;31.04;92.72;99230.56;105608;1257;71254;-63
2023/08/07 16:27:00;;;;;;;11.90;7.60;;;;;;;30.90;93.68;99239.09;105681;1259;60223;-62
2023/08/07 16:29:28;;;;;;;12.20;7.60;;;;;;;30.76;94.81;99241.02;105751;1256;59576;-63
2023/08/07 16:31:56;;;;;;;9.40;6.80;;;;;;;30.64;95.24;99246.34;105842;1251;71844;-65
2023/08/07 16:34:24;;;;;;;9.50;5.60;;;;;;;30.51;95.87;99247.73;105759;1254;66956;-62
2023/08/07 16:36:52;;;;;;;14.40;6.50;;;;;;;30.38;97.48;99250.91;105894;1254;70756;-64
2023/08/07 16:39:20;;;;;;;9.10;5.70;;;;;;;30.25;98.78;99255.05;105886;1256;59807;-62
2023/08/07 16:41:48;;;;;;;12.00;6.40;;;;;;;30.13;99.79;99259.44;105885;1252;60065;-67
2023/08/07 16:44:16;;;;;;;7.40;6.00;;;;;;;30.02;100.00;99259.63;105414;1256;71853;-62
2023/08/07 16:46:43;;;;;;;11.60;6.70;;;;;;;29.92;100.00;99262.08;105914;1253;65695;-66
2023/08/07 16:49:11;;;;;;;11.10;7.00;;;;;;;29.81;100.00;99272.64;105779;1257;71994;-61
2023/08/07 16:51:39;;;;;;;9.80;7.00;;;;;;;29.69;100.00;99274.58;105865;1251;60499;-63
2023/08/07 16:54:07;;;;;;;10.10;7.10;;;;;;;29.59;100.00;99279.20;105768;1256;60588;-63
2023/08/07 16:56:34;;;;;;;10.10;6.40;;;;;;;29.49;100.00;99278.92;105512;1251;74028;-61
2023/08/07 16:59:02;;;;;;;10.80;7.20;;;;;;;29.38;100.00;99286.69;105806;1256;67005;-66
2023/08/07 17:01:30;;;;;;;10.00;6.70;;;;;;;29.28;100.00;99290.42;105897;1257;72752;-64
2023/08/07 17:03:58;;;;;;;11.00;6.60;;;;;;;29.17;100.00;99294.25;105623;1251;60876;-63
2023/08/07 17:06:26;;;;;;;10.50;6.20;;;;;;;29.06;100.00;99292.17;105695;1251;60358;-61
2023/08/07 17:08:54;;;;;;;8.20;5.60;;;;;;;28.96;100.00;99299.18;105929;1251;72610;-64
2023/08/07 17:11:23;;;;;;;7.20;5.40;;;;;;;28.86;100.00;99297.89;105961;1252;66680;-67
2023/08/07 17:13:51;;;;;;;9.00;5.20;;;;;;;28.78;100.00;99303.05;105736;1256;73019;-62
2023/08/07 17:16:18;;;;;;;7.00;5.40;;;;;;;28.70;100.00;99304.89;105620;1256;60332;-62
2023/08/07 17:18:49;;;;;;;11.40;5.60;;;;;;;28.62;100.00;99308.36;105808;1251;60451;-62
2023/08/07 17:29:06;;;;;;;10.10;6.80;;;;;;;28.35;100.00;99321.41;102313;1290;599695;-66
2023/08/07 17:31:34;;;;;;;11.90;7.30;;;;;;;28.27;100.00;99324.16;104770;1263;59458;-62
2023/08/07 17:34:02;;;;;;;10.60;7.60;;;;;;;28.21;100.00;99326.36;105059;1264;60046;-62
2023/08/07 17:44:15;;;;;;;9.80;7.00;;;;;;;28.05;100.00;99338.28;103002;1286;600137;-63
2023/08/07 17:46:43;;;;;;;13.90;7.20;;;;;;;28.02;100.00;99344.73;105693;1254;59184;-67
2023/08/07 17:49:10;;;;;;;14.30;8.10;;;;;;;27.99;100.00;99347.22;105620;1260;60513;-63
2023/08/07 17:51:38;;;;;;;12.70;8.50;;;;;;;27.99;100.00;99346.59;105587;1258;72048;-61
2023/08/07 17:54:06;;;;;;;16.60;9.50;;;;;;;27.96;100.00;99352.23;105717;1259;66943;-62
2023/08/07 17:56:35;;;;;;;15.90;10.00;;;;;;;27.91;100.00;99350.46;105516;1259;72725;-66
2023/08/07 17:59:05;;;;;;;15.50;9.40;;;;;;;27.82;100.00;99351.30;105674;1251;218021;-62
2023/08/07 18:01:33;;;;;;;12.00;9.40;;;;;;;27.76;100.00;99350.05;105836;1251;59992;-62
2023/08/07 18:04:00;;;;;;;15.70;11.00;;;;;;;27.69;100.00;99353.47;105856;1251;72302;-63
2023/08/07 18:06:28;;;;;;;15.30;10.80;;;;;;;27.58;100.00;99355.16;105709;1251;68823;-62
2023/08/07 18:08:56;;;;;;;15.10;10.50;;;;;;;27.47;100.00;99357.82;105660;1257;74122;-66
2023/08/07 18:11:24;;;;;;;14.60;10.20;;;;;;;27.40;100.00;99359.19;105269;1251;60132;-61
2023/08/07 18:13:52;;;;;;;13.70;8.80;;;;;;;27.34;100.00;99363.61;105530;1257;61043;-62
2023/08/07 18:16:20;;;;;;;12.00;7.10;;;;;;;27.31;100.00;99360.58;105651;1254;73119;-61
2023/08/07 18:18:48;;;;;;;9.80;6.90;;;;;;;27.32;100.00;99366.18;105949;1257;66309;-64
2023/08/07 18:21:17;;;;;;;10.00;7.30;;;;;;;27.35;100.00;99364.79;105585;1254;73128;-61
2023/08/07 18:23:45;;;;;;;13.70;6.80;;;;;;;27.38;100.00;99366.30;105877;1251;59356;-63
2023/08/07 18:26:13;;;;;;;11.00;7.20;;;;;;;27.43;100.00;99367.72;105632;1251;59597;-61
2023/08/07 18:28:41;;;;;;;9.60;7.20;;;;;;;27.47;100.00;99364.25;106055;1254;73535;-66
2023/08/07 18:31:09;;;;;;;10.40;7.80;;;;;;;27.49;100.00;99358.64;105473;1257;66925;-61
2023/08/07 18:33:37;;;;;;;12.70;8.40;;;;;;;27.48;100.00;99364.41;105766;1256;72030;-62
2023/08/07 18:36:05;;;;;;;13.30;8.10;;;;;;;27.43;100.00;99363.99;105782;1256;60183;-61
2023/08/07 18:38:33;;;;;;;12.30;8.30;;;;;;;27.36;100.00;99362.14;105894;1256;60491;-64
2023/08/07 18:41:02;;;;;;;12.40;8.10;;;;;;;27.31;100.00;99363.16;105869;1254;74000;-61
2023/08/07 18:50:35;;;;;;;12.60;8.70;;;;;;;27.02;100.00;99366.60;102207;1295;600338;-67
2023/08/07 18:53:03;;;;;;;11.80;8.60;;;;;;;26.93;100.00;99371.79;104985;1263;59193;-64
2023/08/07 18:55:32;;;;;;;13.60;8.60;;;;;;;26.88;100.00;99375.93;105396;1261;59260;-60
2023/08/07 18:58:00;;;;;;;12.20;8.70;;;;;;;26.85;100.00;99372.87;105399;1260;72251;-62
2023/08/07 19:00:28;;;;;;;12.00;8.50;;;;;;;26.84;100.00;99370.60;105451;1260;67560;-62
2023/08/07 19:02:56;;;;;;;11.90;7.50;;;;;;;26.81;100.00;99374.16;105057;1269;72577;-66
2023/08/07 19:05:24;;;;;;;10.10;7.20;;;;;;;26.76;100.00;99376.09;105107;1260;221080;-62
2023/08/07 19:07:52;;;;;;;12.00;7.50;;;;;;;26.69;100.00;99379.39;105410;1260;59278;-62
2023/08/07 19:10:19;;;;;;;8.90;6.10;;;;;;;26.63;100.00;99374.46;105519;1257;72438;-62
2023/08/07 19:12:47;;;;;;;10.40;6.40;;;;;;;26.59;100.00;99375.55;105730;1261;67036;-67
2023/08/07 19:15:16;;;;;;;8.80;6.50;;;;;;;26.54;100.00;99378.63;105252;1257;71986;-61
2023/08/07 19:17:44;;;;;;;7.30;5.70;;;;;;;26.49;100.00;99379.83;105545;1260;59634;-62
2023/08/07 19:20:12;;;;;;;12.30;6.30;;;;;;;26.41;100.00;99379.69;105483;1254;60436;-61
2023/08/07 19:22:40;;;;;;;7.90;5.30;;;;;;;26.35;100.00;99383.98;106059;1255;73050;-66
2023/08/07 19:25:08;;;;;;;6.60;5.30;;;;;;;26.31;100.00;99386.98;105612;1259;67351;-66
2023/08/07 19:27:36;;;;;;;9.60;5.60;;;;;;;26.27;100.00;99388.38;105413;1254;73276;-62
2023/08/07 19:30:05;;;;;;;9.30;5.50;;;;;;;26.23;100.00;99391.16;105540;1260;59775;-61
2023/08/07 19:32:33;;;;;;;9.10;5.20;;;;;;;26.18;100.00;99394.52;105426;1254;60080;-60
2023/08/07 19:35:01;;;;;;;12.90;6.30;;;;;;;26.11;100.00;99394.83;105580;1259;73459;-62
2023/08/07 19:37:30;;;;;;;10.60;6.10;;;;;;;26.03;100.00;99398.52;105584;1257;65646;-62
2023/08/07 19:39:58;;;;;;;13.50;6.80;;;;;;;25.95;100.00;99394.29;105462;1261;72690;-63
2023/08/07 19:42:25;;;;;;;8.90;6.40;;;;;;;25.86;100.00;99396.46;105482;1259;60069;-61
2023/08/07 19:44:53;;;;;;;8.70;6.10;;;;;;;25.80;100.00;99396.84;105596;1254;61020;-63
2023/08/07 19:47:21;;;;;;;12.10;6.40;;;;;;;25.72;100.00;99399.92;105545;1256;73156;-63
2023/08/07 19:50:02;;;;;;;;;;;;;;;25.66;100.00;99395.87;105276;1259;67408;-63
2023/08/07 19:52:30;;;;;;;12.40;6.70;;;;;;;25.62;100.00;99397.09;105547;1254;72716;-61
2023/08/07 19:54:58;;;;;;;12.40;7.30;;;;;;;25.57;100.00;99397.00;105656;1259;60537;-64
2023/08/07 19:57:26;;;;;;;11.90;7.00;;;;;;;25.52;100.00;99405.29;105298;1259;59779;-61
2023/08/07 19:59:54;;;;;;;11.40;7.50;;;;;;;25.45;100.00;99405.23;105627;1254;73075;-62
2023/08/07 20:02:22;;;;;;;10.50;6.90;;;;;;;25.38;100.00;99405.75;105564;1260;66934;-63
2023/08/07 20:04:50;;;;;;;10.30;5.70;;;;;;;25.32;100.00;99408.83;105470;1257;71544;-60
2023/08/07 20:07:18;;;;;;;6.90;5.10;;;;;;;25.27;100.00;99412.68;105575;1254;60436;-62
2023/08/07 20:09:46;;;;;;;11.30;5.80;;;;;;;25.22;100.00;99416.09;105434;1254;59846;-61
2023/08/07 20:12:16;;;;;;;8.00;5.60;;;;;;;25.18;100.00;99418.94;105562;1254;73122;-61
2023/08/07 20:14:44;;;;;;;11.10;5.40;;;;;;;25.15;100.00;99421.42;105525;1254;67247;-62
2023/08/07 20:17:11;;;;;;;7.60;5.10;;;;;;;25.11;100.00;99424.71;105300;1260;73365;-62
2023/08/07 20:19:39;;;;;;;8.80;6.00;;;;;;;25.07;100.00;99428.41;105519;1255;60051;-61
2023/08/07 20:22:07;;;;;;;9.10;6.10;;;;;;;25.00;100.00;99433.66;105635;1254;60055;-61
2023/08/07 20:24:35;;;;;;;11.50;5.70;;;;;;;24.93;100.00;99434.08;105731;1254;71747;-64
2023/08/07 20:27:03;;;;;;;11.30;5.60;;;;;;;24.86;100.00;99435.22;105587;1254;68187;-66
2023/08/07 20:29:31;;;;;;;9.50;5.40;;;;;;;24.79;100.00;99434.52;105864;1256;73799;-64
2023/08/07 20:32:01;;;;;;;7.60;5.30;;;;;;;24.71;100.00;99433.96;106025;1256;60752;-64
2023/08/07 20:34:29;;;;;;;8.00;5.70;;;;;;;24.66;100.00;99434.71;105950;1256;61162;-65
2023/08/07 20:36:57;;;;;;;8.70;5.40;;;;;;;24.62;100.00;99437.45;106070;1254;73598;-64
2023/08/07 20:39:24;;;;;;;5.90;4.60;;;;;;;24.57;100.00;99435.09;105769;1254;67351;-65
2023/08/07 20:41:52;;;;;;;9.20;5.50;;;;;;;24.54;100.00;99431.09;105986;1254;72630;-61
2023/08/07 20:44:22;;;;;;;11.70;5.00;;;;;;;24.50;100.00;99438.20;105999;1254;59679;-62
2023/08/07 20:46:50;;;;;;;9.50;5.70;;;;;;;24.45;100.00;99439.84;105724;1251;59691;-64
2023/08/07 20:49:18;;;;;;;8.80;5.80;;;;;;;24.41;100.00;99442.09;105946;1256;71911;-62
2023/08/07 20:51:46;;;;;;;9.40;5.40;;;;;;;24.37;100.00;99445.93;106026;1251;66127;-61
2023/08/07 20:54:14;;;;;;;10.20;5.50;;;;;;;24.33;100.00;99450.53;105973;1256;72669;-66
2023/08/07 20:56:41;;;;;;;7.00;5.40;;;;;;;24.27;100.00;99448.70;105936;1251;60205;-64
2023/08/07 20:59:09;;;;;;;9.40;5.70;;;;;;;24.23;100.00;99450.88;105649;1251;60048;-65
2023/08/07 21:01:55;;;;;;;8.90;6.10;;;;;;;24.16;100.00;99451.58;106255;1246;71820;31
2023/08/07 21:04:25;;;;;;;7.40;5.50;;;;;;;24.09;100.00;99450.63;105150;1261;67574;-67
2023/08/07 21:06:53;;;;;;;6.40;5.60;;;;;;;24.04;100.00;99455.05;105423;1270;71426;-62
2023/08/07 21:09:21;;;;;;;7.90;5.40;;;;;;;24.02;100.00;99452.42;105411;1271;60068;-63
2023/08/07 21:11:49;;;;;;;12.70;5.50;;;;;;;23.99;100.00;99455.05;105600;1258;59724;-62
2023/08/07 21:14:17;;;;;;;6.20;4.90;;;;;;;23.96;100.00;99459.73;105779;1261;72908;-62
2023/08/07 21:16:44;;;;;;;8.60;5.10;;;;;;;23.91;100.00;99456.08;105601;1263;65779;-64
2023/08/07 21:19:12;;;;;;;8.80;5.40;;;;;;;23.84;100.00;99457.36;105355;1261;72748;-62
2023/08/07 21:21:40;;;;;;;9.10;5.90;;;;;;;23.78;100.00;99463.36;105314;1259;60108;-61
2023/08/07 21:24:11;;;;;;;9.60;6.30;;;;;;;23.74;100.00;99462.30;105523;1262;59629;-63